Terminal Aerodrome Forecast
Issued by NWS Cleveland, OH

Home | Current Version | Previous Version | Graphics & Text | Print | Product List | Glossary On
Versions: 1 2 3 4 5 6 7 8 9 10 11 12 13 14 15 16 17 18 19 20 21 22 23
000
FTUS41 KCLE 152300
TAFCLE
TAF
KCLE 152333Z 1600/1706 32008KT P6SM BKN045
      TEMPO 1600/1602 5SM -SHSN BKN035
     FM160500 VRB03KT P6SM SCT045
     FM161400 18006KT P6SM SCT250
     FM161900 06008KT P6SM SCT250
     FM170000 11008KT P6SM BKN250=

USA.gov is the U.S. government's official web portal to all federal, state and local government web resources and services.